Peabiru, Brazil
Current Conditions -  °F | °C
As of 9:00 PM on Tuesday 21 Oct 2014 (Local Time) from SBMG Reporting Station
Few Clouds Few Clouds  
Wind Chill: 73°   Ceiling: Unl
Heat Index: 73°   Visibility: 6mi
Dew Point: 61°   Wind: 10mph
Humidity: 65%   Direction: 130°SE
Pressure: 30.03"   Gusts: NA
Location:  23.92°S, 52.34°W
Report Text: SBMG 212300Z 13009KT 9999 FEW040 23/16 Q1017
Loading
Personal Weather Stations






























Interactive Weather Map
Tropical Storm Tracking
New forecast layout! Learn more

10-Day Weather Forecast

Advertisements
Track Severe Weather on mobile